sensor_id;sensor_type;location;lat;lon;timestamp;pressure;altitude;pressure_sealevel;temperature;humidity
51496;BME280;37572;52.094;4.870;2023-09-19T00:01:45;100713.69;;;18.72;57.55
51496;BME280;37572;52.094;4.870;2023-09-19T00:04:12;100719.94;;;18.72;57.35
51496;BME280;37572;52.094;4.870;2023-09-19T00:06:37;100721.78;;;18.72;57.57
51496;BME280;37572;52.094;4.870;2023-09-19T00:09:03;100719.94;;;18.72;57.66
51496;BME280;37572;52.094;4.870;2023-09-19T00:11:29;100725.94;;;18.74;57.53
51496;BME280;37572;52.094;4.870;2023-09-19T00:13:54;100723.25;;;18.74;57.40
51496;BME280;37572;52.094;4.870;2023-09-19T00:16:19;100725.09;;;18.80;57.38
51496;BME280;37572;52.094;4.870;2023-09-19T00:18:46;100729.66;;;18.80;57.32
51496;BME280;37572;52.094;4.870;2023-09-19T00:21:12;100730.28;;;18.82;57.26
51496;BME280;37572;52.094;4.870;2023-09-19T00:23:38;100730.72;;;18.85;57.32
51496;BME280;37572;52.094;4.870;2023-09-19T00:26:06;100735.91;;;18.87;57.44
51496;BME280;37572;52.094;4.870;2023-09-19T00:28:31;100731.13;;;18.89;57.27
51496;BME280;37572;52.094;4.870;2023-09-19T00:30:57;100731.50;;;18.93;57.46
51496;BME280;37572;52.094;4.870;2023-09-19T00:33:26;100735.03;;;18.93;57.15
51496;BME280;37572;52.094;4.870;2023-09-19T00:35:53;100741.88;;;18.96;56.90
51496;BME280;37572;52.094;4.870;2023-09-19T00:38:19;100741.06;;;18.95;56.62
51496;BME280;37572;52.094;4.870;2023-09-19T00:40:52;100734.81;;;18.95;56.64
51496;BME280;37572;52.094;4.870;2023-09-19T00:43:18;100738.16;;;18.97;56.67
51496;BME280;37572;52.094;4.870;2023-09-19T00:45:45;100742.28;;;18.99;56.27
51496;BME280;37572;52.094;4.870;2023-09-19T00:48:13;100746.66;;;19.00;56.09
51496;BME280;37572;52.094;4.870;2023-09-19T00:50:41;100744.75;;;19.01;55.97
51496;BME280;37572;52.094;4.870;2023-09-19T00:53:08;100749.34;;;19.00;56.11
51496;BME280;37572;52.094;4.870;2023-09-19T00:55:34;100744.38;;;18.97;56.16
51496;BME280;37572;52.094;4.870;2023-09-19T00:58:02;100750.78;;;18.96;55.95
51496;BME280;37572;52.094;4.870;2023-09-19T01:00:28;100746.47;;;18.95;56.15
51496;BME280;37572;52.094;4.870;2023-09-19T01:02:54;100748.94;;;18.97;56.06
51496;BME280;37572;52.094;4.870;2023-09-19T01:05:19;100748.94;;;18.97;55.87
51496;BME280;37572;52.094;4.870;2023-09-19T01:07:44;100748.94;;;18.97;55.67
51496;BME280;37572;52.094;4.870;2023-09-19T01:10:15;100751.84;;;18.95;55.80
51496;BME280;37572;52.094;4.870;2023-09-19T01:20:45;100756.22;;;18.90;55.21
51496;BME280;37572;52.094;4.870;2023-09-19T01:26:06;100753.31;;;18.84;54.91
51496;BME280;37572;52.094;4.870;2023-09-19T01:28:52;100756.41;;;18.81;54.46
51496;BME280;37572;52.094;4.870;2023-09-19T01:31:22;100754.13;;;18.78;54.41
51496;BME280;37572;52.094;4.870;2023-09-19T01:34:01;100759.53;;;18.78;54.36
51496;BME280;37572;52.094;4.870;2023-09-19T01:36:32;100758.50;;;18.79;54.08
51496;BME280;37572;52.094;4.870;2023-09-19T01:39:05;100762.88;;;18.80;53.95
51496;BME280;37572;52.094;4.870;2023-09-19T01:41:51;100767.19;;;18.81;54.07
51496;BME280;37572;52.094;4.870;2023-09-19T01:44:29;100763.31;;;18.84;53.82
51496;BME280;37572;52.094;4.870;2023-09-19T01:47:00;100779.06;;;18.87;53.88
51496;BME280;37572;52.094;4.870;2023-09-19T01:49:58;100778.84;;;18.89;53.92
51496;BME280;37572;52.094;4.870;2023-09-19T01:52:28;100774.69;;;18.86;53.81
51496;BME280;37572;52.094;4.870;2023-09-19T01:55:02;100773.44;;;18.82;53.93
51496;BME280;37572;52.094;4.870;2023-09-19T01:57:41;100780.91;;;18.80;53.80
51496;BME280;37572;52.094;4.870;2023-09-19T02:00:12;100775.72;;;18.78;53.83
51496;BME280;37572;52.094;4.870;2023-09-19T02:02:44;100769.72;;;18.76;54.08
51496;BME280;37572;52.094;4.870;2023-09-19T02:05:10;100770.13;;;18.73;53.89
51496;BME280;37572;52.094;4.870;2023-09-19T02:07:35;100771.78;;;18.74;54.19
51496;BME280;37572;52.094;4.870;2023-09-19T02:10:04;100773.00;;;18.78;54.14
51496;BME280;37572;52.094;4.870;2023-09-19T02:12:31;100769.28;;;18.79;54.17
51496;BME280;37572;52.094;4.870;2023-09-19T02:14:57;100775.31;;;18.88;54.02
51496;BME280;37572;52.094;4.870;2023-09-19T02:17:24;100770.53;;;18.97;53.90
51496;BME280;37572;52.094;4.870;2023-09-19T02:19:52;100763.44;;;19.02;53.91
51496;BME280;37572;52.094;4.870;2023-09-19T02:22:17;100769.44;;;19.04;53.92
51496;BME280;37572;52.094;4.870;2023-09-19T02:24:43;100764.66;;;19.07;53.90
51496;BME280;37572;52.094;4.870;2023-09-19T02:27:08;100769.25;;;19.06;54.10
51496;BME280;37572;52.094;4.870;2023-09-19T02:29:33;100769.44;;;19.04;54.18
51496;BME280;37572;52.094;4.870;2023-09-19T02:32:02;100773.41;;;19.02;54.08
51496;BME280;37572;52.094;4.870;2023-09-19T02:34:28;100776.31;;;19.00;53.99
51496;BME280;37572;52.094;4.870;2023-09-19T02:36:54;100779.22;;;18.99;54.04
51496;BME280;37572;52.094;4.870;2023-09-19T02:39:20;100781.31;;;18.97;54.01
51496;BME280;37572;52.094;4.870;2023-09-19T02:41:46;100772.59;;;18.95;53.99
51496;BME280;37572;52.094;4.870;2023-09-19T02:44:11;100780.69;;;18.95;53.93
51496;BME280;37572;52.094;4.870;2023-09-19T02:46:37;100775.28;;;18.95;54.17
51496;BME280;37572;52.094;4.870;2023-09-19T02:49:03;100781.75;;;18.94;53.97
51496;BME280;37572;52.094;4.870;2023-09-19T02:51:32;100779.03;;;18.94;53.74
51496;BME280;37572;52.094;4.870;2023-09-19T02:53:59;100781.53;;;18.95;53.86
51496;BME280;37572;52.094;4.870;2023-09-19T02:56:24;100772.59;;;18.95;53.85
51496;BME280;37572;52.094;4.870;2023-09-19T02:58:50;100777.97;;;18.95;53.87
51496;BME280;37572;52.094;4.870;2023-09-19T03:01:16;100772.59;;;18.95;54.19
51496;BME280;37572;52.094;4.870;2023-09-19T03:03:44;100770.94;;;18.94;53.73
51496;BME280;37572;52.094;4.870;2023-09-19T03:06:10;100774.88;;;18.91;53.86
51496;BME280;37572;52.094;4.870;2023-09-19T03:08:36;100784.84;;;18.91;53.84
51496;BME280;37572;52.094;4.870;2023-09-19T03:11:04;100783.81;;;18.85;53.64
51496;BME280;37572;52.094;4.870;2023-09-19T03:13:31;100775.50;;;18.80;53.49
51496;BME280;37572;52.094;4.870;2023-09-19T03:15:57;100787.16;;;18.74;53.46
51496;BME280;37572;52.094;4.870;2023-09-19T03:18:25;100783.41;;;18.68;53.64
51496;BME280;37572;52.094;4.870;2023-09-19T03:20:55;100775.94;;;18.63;54.08
51496;BME280;37572;52.094;4.870;2023-09-19T03:23:21;100783.63;;;18.60;53.83
51496;BME280;37572;52.094;4.870;2023-09-19T03:25:46;100769.75;;;18.56;54.05
51496;BME280;37572;52.094;4.870;2023-09-19T03:28:13;100770.16;;;18.53;54.38
51496;BME280;37572;52.094;4.870;2023-09-19T03:30:38;100767.47;;;18.53;54.57
51496;BME280;37572;52.094;4.870;2023-09-19T03:33:04;100775.56;;;18.53;54.59
51496;BME280;37572;52.094;4.870;2023-09-19T03:35:30;100764.38;;;18.49;55.04
51496;BME280;37572;52.094;4.870;2023-09-19T03:37:56;100764.78;;;18.46;54.88
51496;BME280;37572;52.094;4.870;2023-09-19T03:40:21;100763.13;;;18.45;54.89
51496;BME280;37572;52.094;4.870;2023-09-19T03:42:48;100767.47;;;18.46;54.89
51496;BME280;37572;52.094;4.870;2023-09-19T03:45:13;100774.75;;;18.46;55.12
51496;BME280;37572;52.094;4.870;2023-09-19T03:47:41;100782.00;;;18.45;55.33
51496;BME280;37572;52.094;4.870;2023-09-19T03:50:06;100782.22;;;18.44;55.14
51496;BME280;37572;52.094;4.870;2023-09-19T03:52:33;100788.63;;;18.43;55.21
51496;BME280;37572;52.094;4.870;2023-09-19T03:54:59;100785.72;;;18.44;55.78
51496;BME280;37572;52.094;4.870;2023-09-19T03:57:24;100786.75;;;18.43;55.35
51496;BME280;37572;52.094;4.870;2023-09-19T03:59:50;100788.63;;;18.43;55.37
51496;BME280;37572;52.094;4.870;2023-09-19T04:02:18;100792.16;;;18.43;55.65
51496;BME280;37572;52.094;4.870;2023-09-19T04:04:50;100787.00;;;18.42;55.56
51496;BME280;37572;52.094;4.870;2023-09-19T04:07:16;100793.63;;;18.39;55.54
51496;BME280;37572;52.094;4.870;2023-09-19T04:09:41;100794.66;;;18.38;55.42
51496;BME280;37572;52.094;4.870;2023-09-19T04:12:07;100800.69;;;18.40;55.53
51496;BME280;37572;52.094;4.870;2023-09-19T04:14:34;100810.41;;;18.41;55.22
51496;BME280;37572;52.094;4.870;2023-09-19T04:16:59;100809.59;;;18.41;55.54
51496;BME280;37572;52.094;4.870;2023-09-19T04:19:25;100817.88;;;18.39;55.57
51496;BME280;37572;52.094;4.870;2023-09-19T04:21:51;100811.88;;;18.37;55.20
51496;BME280;37572;52.094;4.870;2023-09-19T04:24:16;100814.56;;;18.37;55.31
51496;BME280;37572;52.094;4.870;2023-09-19T04:26:44;100812.91;;;18.36;55.12
51496;BME280;37572;52.094;4.870;2023-09-19T04:29:10;100819.75;;;18.39;55.00
51496;BME280;37572;52.094;4.870;2023-09-19T04:31:36;100825.75;;;18.41;55.02
51496;BME280;37572;52.094;4.870;2023-09-19T04:34:03;100818.69;;;18.40;55.08
51496;BME280;37572;52.094;4.870;2023-09-19T04:36:28;100819.56;;;18.40;55.21
51496;BME280;37572;52.094;4.870;2023-09-19T04:38:55;100820.38;;;18.41;55.10
51496;BME280;37572;52.094;4.870;2023-09-19T04:41:20;100824.50;;;18.43;55.44
51496;BME280;37572;52.094;4.870;2023-09-19T04:43:47;100818.91;;;18.45;55.32
51496;BME280;37572;52.094;4.870;2023-09-19T04:46:12;100818.69;;;18.46;55.44
51496;BME280;37572;52.094;4.870;2023-09-19T04:48:39;100823.28;;;18.46;55.46
51496;BME280;37572;52.094;4.870;2023-09-19T04:51:05;100821.81;;;18.43;55.37
51496;BME280;37572;52.094;4.870;2023-09-19T04:53:30;100822.88;;;18.42;55.61
51496;BME280;37572;52.094;4.870;2023-09-19T04:55:56;100824.94;;;18.40;55.34
51496;BME280;37572;52.094;4.870;2023-09-19T04:58:22;100819.56;;;18.40;55.75
51496;BME280;37572;52.094;4.870;2023-09-19T05:00:47;100821.41;;;18.40;55.65
51496;BME280;37572;52.094;4.870;2023-09-19T05:03:13;100816.22;;;18.38;55.67
51496;BME280;37572;52.094;4.870;2023-09-19T05:05:38;100822.25;;;18.40;55.65
51496;BME280;37572;52.094;4.870;2023-09-19T05:08:06;100824.50;;;18.37;55.91
51496;BME280;37572;52.094;4.870;2023-09-19T05:10:34;100831.97;;;18.35;55.85
51496;BME280;37572;52.094;4.870;2023-09-19T05:13:00;100842.34;;;18.31;56.23
51496;BME280;37572;52.094;4.870;2023-09-19T05:15:26;100834.25;;;18.31;55.94
51496;BME280;37572;52.094;4.870;2023-09-19T05:17:52;100834.25;;;18.31;55.97
51496;BME280;37572;52.094;4.870;2023-09-19T05:20:19;100836.13;;;18.30;56.17
51496;BME280;37572;52.094;4.870;2023-09-19T05:23:04;100831.97;;;18.28;56.19
51496;BME280;37572;52.094;4.870;2023-09-19T05:25:33;100829.28;;;18.28;56.46
51496;BME280;37572;52.094;4.870;2023-09-19T05:28:02;100816.22;;;18.31;56.49
51496;BME280;37572;52.094;4.870;2023-09-19T05:30:31;100822.88;;;18.36;56.14
51496;BME280;37572;52.094;4.870;2023-09-19T05:32:57;100831.56;;;18.38;56.39
51496;BME280;37572;52.094;4.870;2023-09-19T05:35:23;100819.34;;;18.42;56.05
51496;BME280;37572;52.094;4.870;2023-09-19T05:37:52;100824.50;;;18.43;56.36
51496;BME280;37572;52.094;4.870;2023-09-19T05:40:18;100835.53;;;18.48;56.29
51496;BME280;37572;52.094;4.870;2023-09-19T05:42:44;100828.88;;;18.51;55.92
51496;BME280;37572;52.094;4.870;2023-09-19T05:45:10;100820.97;;;18.56;56.09
51496;BME280;37572;52.094;4.870;2023-09-19T05:47:42;100838.22;;;18.62;55.83
51496;BME280;37572;52.094;4.870;2023-09-19T05:50:11;100832.59;;;18.63;55.78
51496;BME280;37572;52.094;4.870;2023-09-19T05:52:37;100850.22;;;18.66;55.74
51496;BME280;37572;52.094;4.870;2023-09-19T05:55:05;100847.53;;;18.66;56.00
51496;BME280;37572;52.094;4.870;2023-09-19T05:57:32;100848.16;;;18.68;55.74
51496;BME280;37572;52.094;4.870;2023-09-19T05:59:58;100849.00;;;18.68;55.85
51496;BME280;37572;52.094;4.870;2023-09-19T06:02:23;100853.94;;;18.65;55.91
51496;BME280;37572;52.094;4.870;2023-09-19T06:04:48;100857.50;;;18.65;55.92
51496;BME280;37572;52.094;4.870;2023-09-19T06:07:14;100858.09;;;18.67;56.04
51496;BME280;37572;52.094;4.870;2023-09-19T06:09:41;100851.69;;;18.68;55.88
51496;BME280;37572;52.094;4.870;2023-09-19T06:12:07;100861.00;;;18.73;55.98
51496;BME280;37572;52.094;4.870;2023-09-19T06:14:32;100853.13;;;18.71;56.05
51496;BME280;37572;52.094;4.870;2023-09-19T06:16:57;100859.53;;;18.70;56.28
51496;BME280;37572;52.094;4.870;2023-09-19T06:19:23;100857.50;;;18.72;56.26
51496;BME280;37572;52.094;4.870;2023-09-19T06:21:52;100866.00;;;18.76;56.44
51496;BME280;37572;52.094;4.870;2023-09-19T06:24:19;100859.78;;;18.82;56.48
51496;BME280;37572;52.094;4.870;2023-09-19T06:26:45;100856.66;;;18.85;56.78
51496;BME280;37572;52.094;4.870;2023-09-19T06:29:10;100850.03;;;18.88;56.58
51496;BME280;37572;52.094;4.870;2023-09-19T06:31:35;100852.91;;;18.93;56.29
51496;BME280;37572;52.094;4.870;2023-09-19T06:34:00;100844.41;;;18.96;56.36
51496;BME280;37572;52.094;4.870;2023-09-19T06:36:26;100857.69;;;19.04;56.46
51496;BME280;37572;52.094;4.870;2023-09-19T06:38:51;100861.19;;;19.11;56.29
51496;BME280;37572;52.094;4.870;2023-09-19T06:41:17;100861.97;;;19.18;56.22
51496;BME280;37572;52.094;4.870;2023-09-19T06:43:43;100860.13;;;19.26;55.95
51496;BME280;37572;52.094;4.870;2023-09-19T06:46:09;100862.56;;;19.40;55.88
51496;BME280;37572;52.094;4.870;2023-09-19T06:48:34;100861.25;;;19.50;55.75
51496;BME280;37572;52.094;4.870;2023-09-19T06:51:00;100860.00;;;19.59;55.58
51496;BME280;37572;52.094;4.870;2023-09-19T06:53:31;100865.75;;;19.69;55.32
51496;BME280;37572;52.094;4.870;2023-09-19T06:55:57;100873.81;;;19.83;55.24
51496;BME280;37572;52.094;4.870;2023-09-19T06:58:23;100867.13;;;19.92;55.32
51496;BME280;37572;52.094;4.870;2023-09-19T07:00:48;100875.00;;;20.00;54.92
51496;BME280;37572;52.094;4.870;2023-09-19T07:03:15;100869.03;;;20.17;54.93
51496;BME280;37572;52.094;4.870;2023-09-19T07:05:43;100873.69;;;20.34;54.58
51496;BME280;37572;52.094;4.870;2023-09-19T07:08:10;100876.91;;;20.50;54.04
51496;BME280;37572;52.094;4.870;2023-09-19T07:10:38;100876.41;;;20.60;54.06
51496;BME280;37572;52.094;4.870;2023-09-19T07:13:06;100878.50;;;20.64;54.05
51496;BME280;37572;52.094;4.870;2023-09-19T07:15:36;100869.94;;;20.67;53.59
51496;BME280;37572;52.094;4.870;2023-09-19T07:18:05;100872.59;;;20.74;53.86
51496;BME280;37572;52.094;4.870;2023-09-19T07:20:31;100874.41;;;20.80;53.60
51496;BME280;37572;52.094;4.870;2023-09-19T07:22:58;100881.38;;;20.88;53.69
51496;BME280;37572;52.094;4.870;2023-09-19T07:25:27;100886.75;;;20.95;53.33
51496;BME280;37572;52.094;4.870;2023-09-19T07:27:55;100894.84;;;20.95;52.93
51496;BME280;37572;52.094;4.870;2023-09-19T07:30:21;100884.72;;;20.90;52.74
51496;BME280;37572;52.094;4.870;2023-09-19T07:32:47;100890.59;;;20.87;53.13
51496;BME280;37572;52.094;4.870;2023-09-19T07:35:12;100880.56;;;20.87;52.90
51496;BME280;37572;52.094;4.870;2023-09-19T07:37:38;100897.84;;;20.86;52.70
51496;BME280;37572;52.094;4.870;2023-09-19T07:40:04;100888.31;;;20.84;53.06
51496;BME280;37572;52.094;4.870;2023-09-19T07:42:37;100885.81;;;20.82;53.25
51496;BME280;37572;52.094;4.870;2023-09-19T07:45:09;100892.06;;;20.83;53.04
51496;BME280;37572;52.094;4.870;2023-09-19T07:47:34;100892.66;;;20.85;53.38
51496;BME280;37572;52.094;4.870;2023-09-19T07:50:01;100883.66;;;20.91;53.00
51496;BME280;37572;52.094;4.870;2023-09-19T07:52:28;100887.97;;;20.99;53.29
51496;BME280;37572;52.094;4.870;2023-09-19T07:54:54;100892.53;;;20.98;53.00
51496;BME280;37572;52.094;4.870;2023-09-19T07:57:19;100891.13;;;20.96;53.04
51496;BME280;37572;52.094;4.870;2023-09-19T07:59:45;100892.59;;;20.92;52.99
51496;BME280;37572;52.094;4.870;2023-09-19T08:02:10;100900.72;;;20.92;53.44
51496;BME280;37572;52.094;4.870;2023-09-19T08:04:42;100900.91;;;20.97;53.59
51496;BME280;37572;52.094;4.870;2023-09-19T08:07:07;100894.41;;;20.98;53.83
51496;BME280;37572;52.094;4.870;2023-09-19T08:09:34;100886.31;;;20.98;53.67
51496;BME280;37572;52.094;4.870;2023-09-19T08:11:59;100883.16;;;21.01;53.72
51496;BME280;37572;52.094;4.870;2023-09-19T08:14:28;100872.03;;;21.09;53.95
51496;BME280;37572;52.094;4.870;2023-09-19T08:16:57;100881.59;;;21.12;53.34
51496;BME280;37572;52.094;4.870;2023-09-19T08:19:23;100885.56;;;21.09;53.19
51496;BME280;37572;52.094;4.870;2023-09-19T08:21:54;100880.00;;;21.04;53.21
51496;BME280;37572;52.094;4.870;2023-09-19T08:24:20;100885.19;;;21.05;53.65
51496;BME280;37572;52.094;4.870;2023-09-19T08:26:46;100882.72;;;21.04;53.24
51496;BME280;37572;52.094;4.870;2023-09-19T08:29:11;100882.25;;;21.07;53.47
51496;BME280;37572;52.094;4.870;2023-09-19T08:31:37;100868.28;;;21.10;53.43
51496;BME280;37572;52.094;4.870;2023-09-19T08:34:03;100874.50;;;21.11;53.35
51496;BME280;37572;52.094;4.870;2023-09-19T08:36:28;100877.38;;;21.16;53.26
51496;BME280;37572;52.094;4.870;2023-09-19T08:38:53;100878.56;;;21.20;53.30
51496;BME280;37572;52.094;4.870;2023-09-19T08:41:19;100886.25;;;21.23;52.86
51496;BME280;37572;52.094;4.870;2023-09-19T08:43:44;100881.81;;;21.29;52.83
51496;BME280;37572;52.094;4.870;2023-09-19T08:46:14;100871.13;;;21.34;53.18
51496;BME280;37572;52.094;4.870;2023-09-19T08:48:51;100882.50;;;21.42;52.86
51496;BME280;37572;52.094;4.870;2023-09-19T08:51:49;100876.44;;;21.47;52.96
51496;BME280;37572;52.094;4.870;2023-09-19T08:54:28;100878.25;;;21.53;52.78
51496;BME280;37572;52.094;4.870;2023-09-19T08:57:00;100874.22;;;21.56;52.64
51496;BME280;37572;52.094;4.870;2023-09-19T08:59:32;100875.19;;;21.61;52.45
51496;BME280;37572;52.094;4.870;2023-09-19T09:02:00;100885.22;;;21.61;51.96
51496;BME280;37572;52.094;4.870;2023-09-19T09:04:26;100867.63;;;21.52;52.13
51496;BME280;37572;52.094;4.870;2023-09-19T09:06:53;100873.91;;;21.46;52.00
51496;BME280;37572;52.094;4.870;2023-09-19T09:09:21;100866.59;;;21.46;51.92
51496;BME280;37572;52.094;4.870;2023-09-19T09:11:48;100866.19;;;21.49;52.00
51496;BME280;37572;52.094;4.870;2023-09-19T09:14:18;100866.19;;;21.49;51.51
51496;BME280;37572;52.094;4.870;2023-09-19T09:16:44;100869.72;;;21.50;51.64
51496;BME280;37572;52.094;4.870;2023-09-19T09:19:10;100871.00;;;21.47;51.62
51496;BME280;37572;52.094;4.870;2023-09-19T09:21:37;100861.88;;;21.41;52.00
51496;BME280;37572;52.094;4.870;2023-09-19T09:24:28;100856.94;;;21.38;51.81
51496;BME280;37572;52.094;4.870;2023-09-19T09:26:54;100858.13;;;21.42;51.75
51496;BME280;37572;52.094;4.870;2023-09-19T09:29:44;100858.28;;;21.48;51.33
51496;BME280;37572;52.094;4.870;2023-09-19T09:32:36;100863.41;;;21.56;51.71
51496;BME280;37572;52.094;4.870;2023-09-19T09:35:07;100862.03;;;21.65;51.45
51496;BME280;37572;52.094;4.870;2023-09-19T09:37:35;100852.97;;;21.71;51.03
51496;BME280;37572;52.094;4.870;2023-09-19T09:40:04;100862.78;;;21.72;50.98
51496;BME280;37572;52.094;4.870;2023-09-19T09:42:42;100871.13;;;21.71;51.46
51496;BME280;37572;52.094;4.870;2023-09-19T09:47:47;100867.75;;;21.75;50.82
51496;BME280;37572;52.094;4.870;2023-09-19T09:50:29;100872.78;;;21.72;50.40
51496;BME280;37572;52.094;4.870;2023-09-19T09:53:19;100853.44;;;21.68;50.47
51496;BME280;37572;52.094;4.870;2023-09-19T09:55:58;100855.31;;;21.68;50.91
51496;BME280;37572;52.094;4.870;2023-09-19T09:58:27;100855.59;;;21.78;50.64
51496;BME280;37572;52.094;4.870;2023-09-19T10:01:00;100840.59;;;21.94;50.80
51496;BME280;37572;52.094;4.870;2023-09-19T10:03:38;100851.59;;;22.11;50.06
51496;BME280;37572;52.094;4.870;2023-09-19T10:06:12;100866.84;;;22.24;50.10
51496;BME280;37572;52.094;4.870;2023-09-19T10:11:30;100842.94;;;22.44;49.62
51496;BME280;37572;52.094;4.870;2023-09-19T10:13:57;100837.88;;;22.60;49.92
51496;BME280;37572;52.094;4.870;2023-09-19T10:16:29;100833.88;;;22.74;49.58
51496;BME280;37572;52.094;4.870;2023-09-19T10:18:58;100830.56;;;22.84;49.16
51496;BME280;37572;52.094;4.870;2023-09-19T10:21:25;100827.03;;;22.95;49.14
51496;BME280;37572;52.094;4.870;2023-09-19T10:23:58;100823.00;;;22.98;49.14
51496;BME280;37572;52.094;4.870;2023-09-19T10:26:26;100824.66;;;22.99;49.08
51496;BME280;37572;52.094;4.870;2023-09-19T10:28:54;100818.75;;;23.02;48.97
51496;BME280;37572;52.094;4.870;2023-09-19T10:31:21;100806.34;;;23.06;48.92
51496;BME280;37572;52.094;4.870;2023-09-19T10:33:49;100826.19;;;23.06;48.29
51496;BME280;37572;52.094;4.870;2023-09-19T10:36:16;100813.00;;;23.10;48.06
51496;BME280;37572;52.094;4.870;2023-09-19T10:38:43;100810.50;;;23.08;48.53
51496;BME280;37572;52.094;4.870;2023-09-19T10:41:14;100808.72;;;23.14;48.82
51496;BME280;37572;52.094;4.870;2023-09-19T10:43:42;100809.78;;;23.25;48.35
51496;BME280;37572;52.094;4.870;2023-09-19T10:46:10;100803.22;;;23.38;48.12
51496;BME280;37572;52.094;4.870;2023-09-19T10:48:38;100801.09;;;23.40;48.27
51496;BME280;37572;52.094;4.870;2023-09-19T10:51:18;100802.72;;;23.41;47.47
51496;BME280;37572;52.094;4.870;2023-09-19T10:54:00;100797.44;;;23.34;47.63
51496;BME280;37572;52.094;4.870;2023-09-19T10:56:37;100807.00;;;23.37;48.07
51496;BME280;37572;52.094;4.870;2023-09-19T10:59:18;100796.47;;;23.40;47.72
51496;BME280;37572;52.094;4.870;2023-09-19T11:04:35;100814.78;;;23.45;47.31
51496;BME280;37572;52.094;4.870;2023-09-19T11:09:54;100796.63;;;23.34;47.80
51496;BME280;37572;52.094;4.870;2023-09-19T11:14:55;100789.19;;;23.29;47.45
51496;BME280;37572;52.094;4.870;2023-09-19T11:30:33;100781.69;;;22.96;47.10
51496;BME280;37572;52.094;4.870;2023-09-19T11:33:21;100756.44;;;22.95;47.54
51496;BME280;37572;52.094;4.870;2023-09-19T11:43:45;100764.06;;;23.22;47.34
51496;BME280;37572;52.094;4.870;2023-09-19T11:46:11;100760.38;;;23.28;47.37
51496;BME280;37572;52.094;4.870;2023-09-19T11:48:38;100771.50;;;23.26;47.27
51496;BME280;37572;52.094;4.870;2023-09-19T11:51:10;100778.47;;;23.22;47.57
51496;BME280;37572;52.094;4.870;2023-09-19T11:53:41;100767.97;;;23.14;47.17
51496;BME280;37572;52.094;4.870;2023-09-19T11:56:08;100778.97;;;23.07;47.29
51496;BME280;37572;52.094;4.870;2023-09-19T11:58:36;100783.47;;;23.02;47.94
51496;BME280;37572;52.094;4.870;2023-09-19T12:01:04;100778.16;;;22.95;47.81
51496;BME280;37572;52.094;4.870;2023-09-19T12:03:34;100776.63;;;22.87;48.21
51496;BME280;37572;52.094;4.870;2023-09-19T12:06:11;100784.66;;;22.82;48.13
51496;BME280;37572;52.094;4.870;2023-09-19T12:08:39;100784.31;;;22.79;48.41
51496;BME280;37572;52.094;4.870;2023-09-19T12:11:05;100772.28;;;22.75;48.61
51496;BME280;37572;52.094;4.870;2023-09-19T12:13:33;100782.31;;;22.74;48.35
51496;BME280;37572;52.094;4.870;2023-09-19T12:15:59;100778.56;;;22.75;48.46
51496;BME280;37572;52.094;4.870;2023-09-19T12:18:28;100767.47;;;22.77;48.87
51496;BME280;37572;52.094;4.870;2023-09-19T12:20:55;100769.91;;;22.78;48.66
51496;BME280;37572;52.094;4.870;2023-09-19T12:23:21;100777.22;;;22.78;48.94
51496;BME280;37572;52.094;4.870;2023-09-19T12:25:46;100772.16;;;22.81;49.22
51496;BME280;37572;52.094;4.870;2023-09-19T12:28:14;100774.97;;;22.86;48.91
51496;BME280;37572;52.094;4.870;2023-09-19T12:30:39;100780.03;;;22.95;49.11
51496;BME280;37572;52.094;4.870;2023-09-19T12:33:19;100758.41;;;23.00;48.55
51496;BME280;37572;52.094;4.870;2023-09-19T12:35:51;100770.34;;;23.11;48.42
51496;BME280;37572;52.094;4.870;2023-09-19T12:38:27;100773.63;;;23.24;49.06
51496;BME280;37572;52.094;4.870;2023-09-19T12:41:02;100778.19;;;23.36;48.04
51496;BME280;37572;52.094;4.870;2023-09-19T12:43:33;100778.53;;;23.39;48.36
51496;BME280;37572;52.094;4.870;2023-09-19T12:45:59;100770.13;;;23.41;48.26
51496;BME280;37572;52.094;4.870;2023-09-19T12:48:26;100755.97;;;23.39;47.98
51496;BME280;37572;52.094;4.870;2023-09-19T12:51:08;100773.22;;;23.33;48.30
51496;BME280;37572;52.094;4.870;2023-09-19T12:56:07;100767.91;;;23.38;48.49
51496;BME280;37572;52.094;4.870;2023-09-19T12:58:57;100771.31;;;23.45;48.21
51496;BME280;37572;52.094;4.870;2023-09-19T13:01:29;100746.94;;;23.50;48.47
51496;BME280;37572;52.094;4.870;2023-09-19T13:04:17;100777.25;;;23.59;48.32
51496;BME280;37572;52.094;4.870;2023-09-19T13:06:52;100773.56;;;23.65;48.11
51496;BME280;37572;52.094;4.870;2023-09-19T13:09:22;100774.16;;;23.67;48.01
51496;BME280;37572;52.094;4.870;2023-09-19T13:11:49;100773.56;;;23.65;48.23
51496;BME280;37572;52.094;4.870;2023-09-19T13:14:23;100771.91;;;23.64;48.37
51496;BME280;37572;52.094;4.870;2023-09-19T13:19:48;100766.88;;;23.56;48.70
51496;BME280;37572;52.094;4.870;2023-09-19T13:22:37;100774.69;;;23.52;48.43
51496;BME280;37572;52.094;4.870;2023-09-19T13:25:14;100782.19;;;23.45;48.74
51496;BME280;37572;52.094;4.870;2023-09-19T13:27:48;100781.81;;;23.41;48.90
51496;BME280;37572;52.094;4.870;2023-09-19T13:30:16;100768.13;;;23.36;49.12
51496;BME280;37572;52.094;4.870;2023-09-19T13:32:42;100774.31;;;23.32;49.38
51496;BME280;37572;52.094;4.870;2023-09-19T13:35:08;100770.91;;;23.24;48.95
51496;BME280;37572;52.094;4.870;2023-09-19T13:37:35;100769.75;;;23.20;48.72
51496;BME280;37572;52.094;4.870;2023-09-19T13:40:13;100766.69;;;23.17;49.22
51496;BME280;37572;52.094;4.870;2023-09-19T13:42:39;100752.25;;;23.16;49.02
51496;BME280;37572;52.094;4.870;2023-09-19T13:45:06;100759.69;;;23.21;49.02
51496;BME280;37572;52.094;4.870;2023-09-19T13:47:35;100751.31;;;23.22;48.52
51496;BME280;37572;52.094;4.870;2023-09-19T13:50:03;100757.56;;;23.23;48.80